createdAt,value
2022-12-27T00:00:43.291Z,101324.34
2022-12-27T00:03:49.890Z,101325.19
2022-12-27T00:06:56.462Z,101320.73
2022-12-27T00:10:03.272Z,101321.41
2022-12-27T00:13:10.830Z,101332.01
2022-12-27T00:16:25.665Z,101315.97
2022-12-27T00:19:30.782Z,101333.36
2022-12-27T00:22:31.764Z,101324.53
2022-12-27T00:25:37.783Z,101336.12
2022-12-27T00:28:45.902Z,101340.38
2022-12-27T00:31:52.224Z,101335.34
2022-12-27T00:35:00.305Z,101328.74
2022-12-27T00:38:07.715Z,101326.05
2022-12-27T00:41:12.743Z,101321.30
2022-12-27T00:44:18.103Z,101299.31
2022-12-27T00:47:24.507Z,101291.89
2022-12-27T00:50:31.967Z,101292.31
2022-12-27T00:53:38.005Z,101289.14
2022-12-27T00:56:44.839Z,101279.49
2022-12-27T00:59:50.384Z,101264.58
2022-12-27T01:02:56.432Z,101250.19
2022-12-27T01:06:03.686Z,101250.80
2022-12-27T01:09:10.755Z,101248.95
2022-12-27T01:12:16.936Z,101248.17
2022-12-27T01:15:25.485Z,101234.41
2022-12-27T01:18:31.251Z,101227.30
2022-12-27T01:21:38.732Z,101220.08
2022-12-27T01:24:47.341Z,101223.56
2022-12-27T01:27:53.862Z,101221.84
2022-12-27T01:30:59.226Z,101215.56
2022-12-27T01:34:12.823Z,101216.81
2022-12-27T01:37:19.052Z,101204.96
2022-12-27T01:40:27.493Z,101202.92
2022-12-27T01:43:33.268Z,101209.95
2022-12-27T01:46:40.783Z,101197.17
2022-12-27T01:49:46.913Z,101182.54
2022-12-27T01:52:57.042Z,101179.21
2022-12-27T01:56:11.237Z,101170.45
2022-12-27T01:59:22.948Z,101185.13
2022-12-27T02:02:28.856Z,101186.11
2022-12-27T02:05:36.164Z,101186.88
2022-12-27T02:09:24.164Z,101182.56
2022-12-27T02:12:30.929Z,101179.77
2022-12-27T02:15:37.070Z,101178.05
2022-12-27T02:18:43.220Z,101157.23
2022-12-27T02:22:27.570Z,101148.00
2022-12-27T02:25:50.319Z,101141.05
2022-12-27T02:29:26.332Z,101135.13
2022-12-27T02:32:41.079Z,101127.20
2022-12-27T02:35:55.219Z,101129.97
2022-12-27T02:39:04.441Z,101124.87
2022-12-27T02:42:28.399Z,101134.01
2022-12-27T02:45:52.815Z,101129.55
2022-12-27T02:49:28.119Z,101140.64
2022-12-27T02:53:11.806Z,101154.91
2022-12-27T02:57:02.910Z,101152.99
2022-12-27T03:00:52.724Z,101152.38
2022-12-27T03:04:48.581Z,101133.33
2022-12-27T03:08:16.723Z,101131.20
2022-12-27T03:11:42.123Z,101131.41
2022-12-27T03:15:12.070Z,101133.33
2022-12-27T03:18:30.053Z,101135.19
2022-12-27T03:22:07.691Z,101123.11
2022-12-27T03:25:34.154Z,101116.67
2022-12-27T03:29:00.997Z,101119.38
2022-12-27T03:32:30.738Z,101113.67
2022-12-27T03:35:39.400Z,101122.95
2022-12-27T03:38:44.598Z,101117.83
2022-12-27T03:42:12.829Z,101111.39
2022-12-27T03:45:23.280Z,101121.53
2022-12-27T03:48:29.291Z,101107.95
2022-12-27T03:51:36.471Z,101101.68
2022-12-27T03:54:46.329Z,101106.80
2022-12-27T03:57:54.005Z,101092.91
2022-12-27T04:00:53.578Z,101097.53
2022-12-27T04:03:45.871Z,101092.34
2022-12-27T04:06:51.827Z,101081.56
2022-12-27T04:10:15.720Z,101090.32
2022-12-27T04:13:40.970Z,101084.05
2022-12-27T04:17:04.539Z,101073.77
2022-12-27T04:20:29.051Z,101067.87
2022-12-27T04:23:53.514Z,101058.53
2022-12-27T04:27:19.500Z,101055.89
2022-12-27T04:30:43.472Z,101044.83
2022-12-27T04:34:07.411Z,101041.31
2022-12-27T04:37:14.074Z,101034.39
2022-12-27T04:40:40.114Z,101029.38
2022-12-27T04:44:06.407Z,101020.19
2022-12-27T04:47:30.964Z,101006.23
2022-12-27T04:51:02.594Z,101006.49
2022-12-27T04:54:28.018Z,101003.11
2022-12-27T04:57:33.434Z,101003.11
2022-12-27T05:01:00.766Z,101005.44
2022-12-27T05:04:08.240Z,100999.38
2022-12-27T05:07:32.030Z,100997.20
2022-12-27T05:10:56.239Z,100993.48
2022-12-27T05:14:08.080Z,100987.88
2022-12-27T05:17:15.817Z,100978.03
2022-12-27T05:20:22.425Z,100974.75
2022-12-27T05:23:45.418Z,100967.03
2022-12-27T05:26:51.641Z,100958.77
2022-12-27T05:29:58.517Z,100945.80
2022-12-27T05:33:07.457Z,100952.53
2022-12-27T05:36:13.731Z,100939.45
2022-12-27T05:39:20.374Z,100937.41
2022-12-27T05:42:25.524Z,100934.97
2022-12-27T05:45:30.318Z,100920.39
2022-12-27T05:48:36.778Z,100917.52
2022-12-27T05:51:42.591Z,100914.70
2022-12-27T05:54:48.903Z,100908.33
2022-12-27T05:57:54.750Z,100902.05
2022-12-27T06:01:00.745Z,100901.36
2022-12-27T06:04:06.667Z,100897.31
2022-12-27T06:07:11.724Z,100895.63
2022-12-27T06:10:18.175Z,100894.83
2022-12-27T06:13:24.883Z,100877.72
2022-12-27T06:16:30.535Z,100871.11
2022-12-27T06:19:36.449Z,100869.83
2022-12-27T06:22:42.298Z,100877.23
2022-12-27T06:25:47.979Z,100874.67
2022-12-27T06:28:56.406Z,100860.72
2022-12-27T06:32:02.729Z,100861.03
2022-12-27T06:35:10.992Z,100855.80
2022-12-27T06:38:22.256Z,100849.78
2022-12-27T06:41:29.647Z,100845.19
2022-12-27T06:44:35.425Z,100841.86
2022-12-27T06:47:41.799Z,100843.61
2022-12-27T06:50:53.165Z,100839.09
2022-12-27T06:53:59.478Z,100845.51
2022-12-27T06:57:06.160Z,100836.76
2022-12-27T07:00:14.215Z,100840.31
2022-12-27T07:03:42.487Z,100826.05
2022-12-27T07:06:55.324Z,100818.29
2022-12-27T07:10:01.373Z,100824.28
2022-12-27T07:13:06.547Z,100822.70
2022-12-27T07:16:11.791Z,100817.55
2022-12-27T07:19:23.760Z,100820.41
2022-12-27T07:22:38.601Z,100819.84
2022-12-27T07:25:51.007Z,100824.06
2022-12-27T07:28:59.985Z,100818.95
2022-12-27T07:32:07.998Z,100823.24
2022-12-27T07:35:16.021Z,100822.66
2022-12-27T07:38:24.524Z,100806.20
2022-12-27T07:41:31.950Z,100806.44
2022-12-27T07:44:38.131Z,100799.45
2022-12-27T07:47:43.087Z,100801.87
2022-12-27T07:50:53.682Z,100799.80
2022-12-27T07:54:08.005Z,100806.20
2022-12-27T07:57:29.762Z,100813.84
2022-12-27T08:00:37.545Z,100805.77
2022-12-27T08:03:43.314Z,100802.79
2022-12-27T08:06:50.210Z,100800.56
2022-12-27T08:09:59.599Z,100800.72
2022-12-27T08:13:10.555Z,100792.97
2022-12-27T08:16:17.679Z,100789.91
2022-12-27T08:22:44.347Z,100770.30
2022-12-27T08:25:52.634Z,100764.39
2022-12-27T08:29:00.913Z,100757.15
2022-12-27T08:32:22.409Z,100754.80
2022-12-27T08:35:53.534Z,100747.80
2022-12-27T08:39:09.664Z,100741.05
2022-12-27T08:42:14.896Z,100730.71
2022-12-27T08:45:22.158Z,100731.95
2022-12-27T08:48:30.340Z,100735.16
2022-12-27T08:51:41.289Z,100728.91
2022-12-27T08:54:45.349Z,100712.58
2022-12-27T08:57:51.515Z,100714.89
2022-12-27T09:00:58.149Z,100709.61
2022-12-27T09:04:03.510Z,100696.81
2022-12-27T09:07:08.935Z,100691.65
2022-12-27T09:10:15.445Z,100678.13
2022-12-27T09:13:21.129Z,100674.46
2022-12-27T09:16:30.871Z,100660.19
2022-12-27T09:19:39.584Z,100661.55
2022-12-27T09:22:44.928Z,100655.89
2022-12-27T09:25:51.693Z,100657.24
2022-12-27T09:28:59.309Z,100657.38
2022-12-27T09:32:04.727Z,100661.19
2022-12-27T09:35:12.541Z,100655.79
2022-12-27T09:38:18.652Z,100649.52
2022-12-27T09:45:11.677Z,100635.98
2022-12-27T09:48:32.715Z,100635.59
2022-12-27T09:51:44.741Z,100631.55
2022-12-27T09:55:04.717Z,100623.55
2022-12-27T09:58:13.838Z,100612.56
2022-12-27T10:01:36.781Z,100620.33
2022-12-27T10:05:18.437Z,100604.58
2022-12-27T10:08:45.132Z,100584.53
2022-12-27T10:12:20.344Z,100572.64
2022-12-27T10:15:58.041Z,100571.03
2022-12-27T10:19:29.313Z,100562.42
2022-12-27T10:22:54.843Z,100564.27
2022-12-27T10:26:02.393Z,100550.57
2022-12-27T10:29:19.884Z,100548.34
2022-12-27T10:32:28.372Z,100546.99
2022-12-27T10:35:36.229Z,100544.38
2022-12-27T10:38:47.384Z,100536.47
2022-12-27T10:42:18.134Z,100531.67
2022-12-27T10:45:51.276Z,100528.00
2022-12-27T10:49:20.956Z,100511.02
2022-12-27T10:52:36.257Z,100502.41
2022-12-27T10:55:53.420Z,100487.74
2022-12-27T10:59:03.308Z,100496.34
2022-12-27T11:02:24.055Z,100491.02
2022-12-27T11:05:39.915Z,100487.91
2022-12-27T11:08:51.518Z,100493.45
2022-12-27T11:11:59.060Z,100484.02
2022-12-27T11:15:30.899Z,100479.61
2022-12-27T11:18:37.075Z,100480.58
2022-12-27T11:21:44.745Z,100479.43
2022-12-27T11:24:52.572Z,100486.62
2022-12-27T11:28:08.346Z,100479.70
2022-12-27T11:31:33.204Z,100479.30
2022-12-27T11:34:46.467Z,100484.56
2022-12-27T11:37:55.237Z,100486.24
2022-12-27T11:41:01.193Z,100477.57
2022-12-27T11:44:15.851Z,100479.52
2022-12-27T11:47:48.049Z,100466.05
2022-12-27T11:51:05.793Z,100461.71
2022-12-27T11:55:05.859Z,100465.16
2022-12-27T11:58:34.380Z,100464.02
2022-12-27T12:01:55.305Z,100459.81
2022-12-27T12:05:27.229Z,100465.97
2022-12-27T12:09:10.938Z,100458.08
2022-12-27T12:12:37.810Z,100472.57
2022-12-27T12:15:51.694Z,100468.58
2022-12-27T12:19:20.265Z,100467.23
2022-12-27T12:22:44.522Z,100458.36
2022-12-27T12:26:25.419Z,100464.30
2022-12-27T12:29:38.761Z,100464.78
2022-12-27T12:33:06.328Z,100466.28
2022-12-27T12:36:53.462Z,100456.94
2022-12-27T12:40:31.116Z,100462.62
2022-12-27T12:44:08.123Z,100469.75
2022-12-27T12:47:41.256Z,100467.28
2022-12-27T12:51:18.146Z,100464.06
2022-12-27T12:55:00.446Z,100466.91
2022-12-27T12:58:33.211Z,100461.63
2022-12-27T13:01:51.171Z,100460.13
2022-12-27T13:05:26.880Z,100450.02
2022-12-27T13:08:56.422Z,100455.30
2022-12-27T13:12:54.112Z,100451.58
2022-12-27T13:16:36.079Z,100453.59
2022-12-27T13:20:19.579Z,100462.08
2022-12-27T13:23:47.615Z,100460.09
2022-12-27T13:27:02.505Z,100457.73
2022-12-27T13:30:26.205Z,100459.09
2022-12-27T13:33:43.853Z,100461.66
2022-12-27T13:37:26.658Z,100464.76
2022-12-27T13:40:58.155Z,100463.96
2022-12-27T13:44:24.735Z,100453.64
2022-12-27T13:47:50.621Z,100461.11
2022-12-27T13:51:12.681Z,100463.34
2022-12-27T13:54:57.360Z,100463.69
2022-12-27T13:58:25.788Z,100456.20
2022-12-27T14:01:45.284Z,100460.14
2022-12-27T14:05:04.893Z,100453.98
2022-12-27T14:09:01.302Z,100448.42
2022-12-27T14:12:55.001Z,100450.65
2022-12-27T14:16:28.350Z,100440.15
2022-12-27T14:19:51.738Z,100440.39
2022-12-27T14:23:10.513Z,100439.38
2022-12-27T14:26:50.533Z,100445.16
2022-12-27T14:30:43.583Z,100444.67
2022-12-27T14:34:37.264Z,100439.97
2022-12-27T14:38:33.579Z,100438.09
2022-12-27T14:42:08.497Z,100441.81
2022-12-27T14:45:31.123Z,100447.97
2022-12-27T14:48:55.960Z,100429.48
2022-12-27T14:52:19.948Z,100426.27
2022-12-27T14:55:43.872Z,100434.03
2022-12-27T14:59:02.331Z,100433.89
2022-12-27T15:02:15.292Z,100434.55
2022-12-27T15:05:59.879Z,100437.41
2022-12-27T15:09:32.859Z,100431.59
2022-12-27T15:13:16.859Z,100423.98
2022-12-27T15:16:59.259Z,100434.45
2022-12-27T15:20:26.134Z,100438.66
2022-12-27T15:24:00.826Z,100425.09
2022-12-27T15:27:31.817Z,100429.16
2022-12-27T15:31:09.200Z,100422.04
2022-12-27T15:35:02.838Z,100416.23
2022-12-27T15:38:21.183Z,100403.41
2022-12-27T15:41:38.749Z,100403.13
2022-12-27T15:45:12.166Z,100399.30
2022-12-27T15:48:46.101Z,100393.73
2022-12-27T15:52:07.599Z,100405.55
2022-12-27T15:55:43.592Z,100413.00
2022-12-27T15:58:49.858Z,100411.27
2022-12-27T16:01:55.440Z,100406.56
2022-12-27T16:05:13.134Z,100411.50
2022-12-27T16:08:27.090Z,100411.64
2022-12-27T16:11:32.763Z,100413.97
2022-12-27T16:14:44.385Z,100416.69
2022-12-27T16:18:08.627Z,100404.34
2022-12-27T16:21:30.522Z,100402.64
2022-12-27T16:24:39.321Z,100404.48
2022-12-27T16:27:47.285Z,100409.06
2022-12-27T16:31:03.606Z,100397.36
2022-12-27T16:34:10.985Z,100401.77
2022-12-27T16:37:17.130Z,100397.56
2022-12-27T16:40:55.524Z,100392.00
2022-12-27T16:44:38.547Z,100388.66
2022-12-27T16:48:13.101Z,100379.52
2022-12-27T16:51:48.836Z,100380.09
2022-12-27T16:55:21.346Z,100376.41
2022-12-27T16:58:43.048Z,100383.53
2022-12-27T17:02:02.471Z,100373.27
2022-12-27T17:05:11.500Z,100379.77
2022-12-27T17:08:28.961Z,100390.68
2022-12-27T17:11:42.256Z,100404.97
2022-12-27T17:14:50.999Z,100390.19
2022-12-27T17:17:59.446Z,100391.75
2022-12-27T17:21:11.947Z,100388.93
2022-12-27T17:24:35.716Z,100393.49
2022-12-27T17:28:00.876Z,100394.13
2022-12-27T17:31:20.501Z,100400.90
2022-12-27T17:34:43.909Z,100395.33
2022-12-27T17:38:03.300Z,100401.77
2022-12-27T17:41:57.956Z,100397.70
2022-12-27T17:45:21.381Z,100383.61
2022-12-27T17:48:37.235Z,100386.08
2022-12-27T17:51:44.513Z,100387.78
2022-12-27T17:55:08.071Z,100370.88
2022-12-27T17:58:18.474Z,100375.57
2022-12-27T18:01:23.280Z,100374.56
2022-12-27T18:04:38.508Z,100371.07
2022-12-27T18:07:45.105Z,100372.66
2022-12-27T18:10:52.946Z,100365.08
2022-12-27T18:14:07.104Z,100365.80
2022-12-27T18:17:14.497Z,100363.66
2022-12-27T18:20:44.025Z,100359.30
2022-12-27T18:24:00.227Z,100347.44
2022-12-27T18:27:16.675Z,100347.81
2022-12-27T18:30:25.816Z,100335.95
2022-12-27T18:33:33.631Z,100348.50
2022-12-27T18:36:56.147Z,100354.45
2022-12-27T18:40:13.974Z,100362.65
2022-12-27T18:43:22.769Z,100357.80
2022-12-27T18:46:47.214Z,100338.52
2022-12-27T18:49:57.213Z,100344.81
2022-12-27T18:53:02.903Z,100345.00
2022-12-27T18:56:24.496Z,100350.81
2022-12-27T18:59:39.983Z,100345.92
2022-12-27T19:02:51.100Z,100344.42
2022-12-27T19:06:16.629Z,100346.64
2022-12-27T19:09:29.295Z,100351.58
2022-12-27T19:12:45.254Z,100353.44
2022-12-27T19:15:58.201Z,100353.58
2022-12-27T19:19:09.183Z,100348.93
2022-12-27T19:22:15.355Z,100351.94
2022-12-27T19:25:41.358Z,100357.17
2022-12-27T19:28:47.594Z,100360.43
2022-12-27T19:31:55.418Z,100364.45
2022-12-27T19:35:07.303Z,100357.71
2022-12-27T19:38:13.139Z,100360.86
2022-12-27T19:41:17.756Z,100363.28
2022-12-27T19:44:27.383Z,100370.14
2022-12-27T19:47:33.517Z,100370.43
2022-12-27T19:50:39.119Z,100368.49
2022-12-27T19:53:57.670Z,100375.42
2022-12-27T19:57:01.338Z,100382.69
2022-12-27T20:00:12.406Z,100385.54
2022-12-27T20:03:13.839Z,100375.21
2022-12-27T20:06:24.041Z,100382.24
2022-12-27T20:09:28.466Z,100395.31
2022-12-27T20:12:35.268Z,100392.46
2022-12-27T20:15:41.789Z,100398.27
2022-12-27T20:18:48.361Z,100391.34
2022-12-27T20:21:55.090Z,100388.98
2022-12-27T20:25:01.574Z,100393.91
2022-12-27T20:28:07.668Z,100389.33
2022-12-27T20:31:08.358Z,100408.45
2022-12-27T20:34:17.233Z,100415.38
2022-12-27T20:37:24.907Z,100411.97
2022-12-27T20:40:31.424Z,100413.58
2022-12-27T20:43:37.707Z,100414.09
2022-12-27T20:46:44.666Z,100412.74
2022-12-27T20:49:52.887Z,100419.66
2022-12-27T20:52:59.467Z,100432.50
2022-12-27T20:56:16.360Z,100426.00
2022-12-27T20:59:23.591Z,100430.20
2022-12-27T21:02:30.318Z,100428.61
2022-12-27T21:05:39.608Z,100424.82
2022-12-27T21:08:55.971Z,100445.43
2022-12-27T21:11:57.385Z,100441.50
2022-12-27T21:15:05.354Z,100450.65
2022-12-27T21:18:14.285Z,100451.41
2022-12-27T21:21:21.622Z,100461.66
2022-12-27T21:24:28.196Z,100457.66
2022-12-27T21:27:35.534Z,100476.64
2022-12-27T21:30:40.875Z,100472.84
2022-12-27T21:33:47.199Z,100490.22
2022-12-27T21:36:54.180Z,100506.97
2022-12-27T21:40:00.691Z,100512.31
2022-12-27T21:43:07.710Z,100520.47
2022-12-27T21:46:13.701Z,100529.66
2022-12-27T21:49:28.165Z,100550.62
2022-12-27T21:52:33.524Z,100547.36
2022-12-27T21:55:39.797Z,100565.01
2022-12-27T21:58:47.980Z,100551.12
2022-12-27T22:01:56.274Z,100560.61
2022-12-27T22:05:04.391Z,100556.73
2022-12-27T22:08:12.424Z,100566.34
2022-12-27T22:11:18.096Z,100578.44
2022-12-27T22:14:26.013Z,100573.64
2022-12-27T22:17:32.753Z,100565.77
2022-12-27T22:20:45.113Z,100569.31
2022-12-27T22:23:50.783Z,100576.86
2022-12-27T22:26:57.240Z,100577.83
2022-12-27T22:30:03.838Z,100568.36
2022-12-27T22:33:09.729Z,100575.86
2022-12-27T22:36:21.027Z,100593.45
2022-12-27T22:39:26.860Z,100591.62
2022-12-27T22:42:32.738Z,100594.33
2022-12-27T22:45:37.682Z,100594.07
2022-12-27T22:48:45.360Z,100600.48
2022-12-27T22:51:52.303Z,100605.90
2022-12-27T22:55:04.327Z,100617.34
2022-12-27T22:58:07.836Z,100614.53
2022-12-27T23:01:14.712Z,100615.15
2022-12-27T23:04:21.897Z,100615.76
2022-12-27T23:08:05.146Z,100617.72
2022-12-27T23:10:35.916Z,100618.36
2022-12-27T23:13:43.287Z,100614.79
2022-12-27T23:16:59.674Z,100618.36
2022-12-27T23:20:06.309Z,100616.50
2022-12-27T23:23:12.670Z,100621.91
2022-12-27T23:26:25.456Z,100622.78
2022-12-27T23:29:31.387Z,100626.84
2022-12-27T23:32:36.914Z,100624.48
2022-12-27T23:35:42.932Z,100618.47
2022-12-27T23:38:48.404Z,100628.68
2022-12-27T23:41:53.482Z,100633.61
2022-12-27T23:44:59.175Z,100625.23
2022-12-27T23:48:04.498Z,100636.31
2022-12-27T23:51:11.219Z,100639.63
2022-12-27T23:54:16.109Z,100635.22
2022-12-27T23:57:22.830Z,100640.63
